createdAt,value
2019-03-11T00:00:15.950Z,16.20
2019-03-11T00:01:15.845Z,17.70
2019-03-11T00:02:15.840Z,17.30
2019-03-11T00:03:15.831Z,14.80
2019-03-11T00:04:16.273Z,14.40
2019-03-11T00:05:15.819Z,14.60
2019-03-11T00:06:15.782Z,11.70
2019-03-11T00:07:15.778Z,14.80
2019-03-11T00:08:15.764Z,18.00
2019-03-11T00:09:15.744Z,14.30
2019-03-11T00:10:15.759Z,15.20
2019-03-11T00:11:15.731Z,15.00
2019-03-11T00:12:15.716Z,13.60
2019-03-11T00:13:15.752Z,15.20
2019-03-11T00:14:15.735Z,16.20
2019-03-11T00:15:15.684Z,16.40
2019-03-11T00:16:15.685Z,16.70
2019-03-11T00:17:15.687Z,20.40
2019-03-11T00:18:15.669Z,17.50
2019-03-11T00:19:15.647Z,16.90
2019-03-11T00:20:15.622Z,13.70
2019-03-11T00:21:15.620Z,13.30
2019-03-11T00:22:15.629Z,17.10
2019-03-11T00:23:15.652Z,14.50
2019-03-11T00:24:15.588Z,17.00
2019-03-11T00:25:15.595Z,13.30
2019-03-11T00:26:15.557Z,16.60
2019-03-11T00:27:15.567Z,9.00
2019-03-11T00:28:15.570Z,13.70
2019-03-11T00:29:15.531Z,14.20
2019-03-11T00:30:15.534Z,14.20
2019-03-11T00:31:15.503Z,16.20
2019-03-11T00:32:15.493Z,15.30
2019-03-11T00:33:15.506Z,16.60
2019-03-11T00:34:15.469Z,14.80
2019-03-11T00:35:15.477Z,15.40
2019-03-11T00:36:15.461Z,14.70
2019-03-11T00:37:15.436Z,16.10
2019-03-11T00:38:15.449Z,13.10
2019-03-11T00:39:15.412Z,14.30
2019-03-11T00:40:15.411Z,15.20
2019-03-11T00:41:15.411Z,9.50
2019-03-11T00:42:15.417Z,18.00
2019-03-11T00:43:15.444Z,16.60
2019-03-11T00:44:15.365Z,12.40
2019-03-11T00:45:15.354Z,14.60
2019-03-11T00:46:15.335Z,14.40
2019-03-11T00:47:15.330Z,14.70
2019-03-11T00:48:15.341Z,14.90
2019-03-11T00:49:15.307Z,14.60
2019-03-11T00:50:15.308Z,13.60
2019-03-11T00:51:15.280Z,15.70
2019-03-11T00:52:15.272Z,12.30
2019-03-11T00:53:15.300Z,12.70
2019-03-11T00:54:15.271Z,14.70
2019-03-11T00:55:15.235Z,12.20
2019-03-11T00:56:15.243Z,14.50
2019-03-11T00:57:15.226Z,12.00
2019-03-11T00:58:15.228Z,14.70
2019-03-11T00:59:15.205Z,13.90
2019-03-11T01:00:15.179Z,13.60
2019-03-11T01:01:15.171Z,12.50
2019-03-11T01:02:15.161Z,11.00
2019-03-11T01:03:15.187Z,17.20
2019-03-11T01:04:15.147Z,16.90
2019-03-11T01:05:15.150Z,18.00
2019-03-11T01:06:15.126Z,12.10
2019-03-11T01:07:15.111Z,13.60
2019-03-11T01:08:15.092Z,12.90
2019-03-11T01:09:15.126Z,14.20
2019-03-11T01:10:15.077Z,15.60
2019-03-11T01:11:15.057Z,15.50
2019-03-11T01:12:15.055Z,16.20
2019-03-11T01:13:15.042Z,15.60
2019-03-11T01:14:15.058Z,12.60
2019-03-11T01:15:15.022Z,14.20
2019-03-11T01:16:15.018Z,16.10
2019-03-11T01:17:14.990Z,13.20
2019-03-11T01:18:14.993Z,14.40
2019-03-11T01:19:14.998Z,17.70
2019-03-11T01:20:14.965Z,15.30
2019-03-11T01:21:14.950Z,13.80
2019-03-11T01:22:14.943Z,12.70
2019-03-11T01:23:14.921Z,14.50
2019-03-11T01:24:14.931Z,14.90
2019-03-11T01:25:14.908Z,13.00
2019-03-11T01:26:14.893Z,14.20
2019-03-11T01:27:14.888Z,12.80
2019-03-11T01:28:14.908Z,14.00
2019-03-11T01:29:14.890Z,12.70
2019-03-11T01:30:14.854Z,12.10
2019-03-11T01:31:14.839Z,11.10
2019-03-11T01:32:14.832Z,14.20
2019-03-11T01:33:14.828Z,11.70
2019-03-11T01:34:14.839Z,13.20
2019-03-11T01:35:14.794Z,13.10
2019-03-11T01:36:14.781Z,13.60
2019-03-11T01:37:14.790Z,12.20
2019-03-11T01:38:14.769Z,14.70
2019-03-11T01:39:14.778Z,14.10
2019-03-11T01:40:14.741Z,9.90
2019-03-11T01:41:14.731Z,11.60
2019-03-11T01:42:14.722Z,10.00
2019-03-11T01:43:14.704Z,12.30
2019-03-11T01:44:14.730Z,14.60
2019-03-11T01:45:14.687Z,12.40
2019-03-11T01:46:14.673Z,14.30
2019-03-11T01:47:14.661Z,11.90
2019-03-11T01:48:14.645Z,12.20
2019-03-11T01:49:14.647Z,12.80
2019-03-11T01:50:14.638Z,12.10
2019-03-11T01:51:14.661Z,11.50
2019-03-11T01:52:14.611Z,10.90
2019-03-11T01:53:14.605Z,13.60
2019-03-11T01:54:14.613Z,13.10
2019-03-11T01:55:14.576Z,12.20
2019-03-11T01:56:14.573Z,12.30
2019-03-11T01:57:14.549Z,10.10
2019-03-11T01:58:14.539Z,11.90
2019-03-11T01:59:14.548Z,10.10
2019-03-11T02:00:14.513Z,11.80
2019-03-11T02:01:14.508Z,11.20
2019-03-11T02:02:14.510Z,9.70
2019-03-11T02:03:14.475Z,10.50
2019-03-11T02:04:14.495Z,11.20
2019-03-11T02:05:14.482Z,11.70
2019-03-11T02:06:14.447Z,12.40
2019-03-11T02:07:14.437Z,10.40
2019-03-11T02:08:14.427Z,9.10
2019-03-11T02:09:14.457Z,10.90
2019-03-11T02:10:14.419Z,11.10
2019-03-11T02:11:14.390Z,10.30
2019-03-11T02:12:14.385Z,11.00
2019-03-11T02:13:15.111Z,9.80
2019-03-11T02:14:14.396Z,10.80
2019-03-11T02:15:14.353Z,9.80
2019-03-11T02:16:14.355Z,8.90
2019-03-11T02:17:14.334Z,11.00
2019-03-11T02:18:14.320Z,9.70
2019-03-11T02:19:14.320Z,10.30
2019-03-11T02:20:14.291Z,9.50
2019-03-11T02:21:14.294Z,10.80
2019-03-11T02:22:14.274Z,11.30
2019-03-11T02:23:14.266Z,11.80
2019-03-11T02:24:14.280Z,11.70
2019-03-11T02:25:14.272Z,8.10
2019-03-11T02:26:14.228Z,7.30
2019-03-11T02:27:14.231Z,9.20
2019-03-11T02:28:14.204Z,11.30
2019-03-11T02:29:14.193Z,7.50
2019-03-11T02:30:14.664Z,8.70
2019-03-11T02:31:14.200Z,8.60
2019-03-11T02:32:14.167Z,9.50
2019-03-11T02:33:14.213Z,7.60
2019-03-11T02:34:14.138Z,6.70
2019-03-11T02:35:14.158Z,7.10
2019-03-11T02:36:14.119Z,7.30
2019-03-11T02:37:14.108Z,6.60
2019-03-11T02:38:14.106Z,7.60
2019-03-11T02:39:14.097Z,7.40
2019-03-11T02:40:14.097Z,7.30
2019-03-11T02:41:14.069Z,6.50
2019-03-11T02:42:14.053Z,6.60
2019-03-11T02:43:14.043Z,6.00
2019-03-11T02:44:14.021Z,6.10
2019-03-11T02:45:14.053Z,5.50
2019-03-11T02:46:14.008Z,5.00
2019-03-11T02:47:13.994Z,4.70
2019-03-11T02:48:13.983Z,5.40
2019-03-11T02:49:13.979Z,4.70
2019-03-11T02:50:13.988Z,5.50
2019-03-11T02:51:13.948Z,5.30
2019-03-11T02:52:13.950Z,4.80
2019-03-11T02:53:13.943Z,5.20
2019-03-11T02:54:13.911Z,5.00
2019-03-11T02:55:13.919Z,5.80
2019-03-11T02:56:13.917Z,5.20
2019-03-11T02:57:13.890Z,5.50
2019-03-11T02:58:13.872Z,6.40
2019-03-11T02:59:13.864Z,6.60
2019-03-11T03:00:13.888Z,5.80
2019-03-11T03:01:15.045Z,6.40
2019-03-11T03:02:13.841Z,5.80
2019-03-11T03:03:13.815Z,6.50
2019-03-11T03:04:13.806Z,6.10
2019-03-11T03:05:13.819Z,7.20
2019-03-11T03:06:13.781Z,6.70
2019-03-11T03:07:13.806Z,6.80
2019-03-11T03:08:13.762Z,7.20
2019-03-11T03:09:13.745Z,7.20
2019-03-11T03:10:13.778Z,6.90
2019-03-11T03:11:13.740Z,7.20
2019-03-11T03:12:13.735Z,7.60
2019-03-11T03:13:13.712Z,7.10
2019-03-11T03:14:13.716Z,7.60
2019-03-11T03:15:13.701Z,7.80
2019-03-11T03:16:13.692Z,10.20
2019-03-11T03:17:13.663Z,7.50
2019-03-11T03:18:13.669Z,7.50
2019-03-11T03:19:13.640Z,8.40
2019-03-11T03:20:13.625Z,7.60
2019-03-11T03:21:13.644Z,8.00
2019-03-11T03:22:13.627Z,7.90
2019-03-11T03:23:13.591Z,7.80
2019-03-11T03:24:13.591Z,7.90
2019-03-11T03:25:13.579Z,8.20
2019-03-11T03:26:13.573Z,7.10
2019-03-11T03:27:13.558Z,7.80
2019-03-11T03:28:13.550Z,7.80
2019-03-11T03:29:13.533Z,7.50
2019-03-11T03:30:13.515Z,6.80
2019-03-11T03:31:13.543Z,7.40
2019-03-11T03:32:13.496Z,7.80
2019-03-11T03:33:13.492Z,8.50
2019-03-11T03:34:13.509Z,7.50
2019-03-11T03:35:13.474Z,6.90
2019-03-11T03:37:14.557Z,8.10
2019-03-11T03:38:13.438Z,9.00
2019-03-11T03:39:13.419Z,7.50
2019-03-11T03:40:13.472Z,7.20
2019-03-11T03:41:13.407Z,8.40
2019-03-11T03:42:13.869Z,7.40
2019-03-11T03:43:13.373Z,8.00
2019-03-11T03:44:13.371Z,7.80
2019-03-11T03:45:13.360Z,8.20
2019-03-11T03:46:19.276Z,7.00
2019-03-11T03:47:14.332Z,7.40
2019-03-11T03:48:13.315Z,7.50
2019-03-11T03:49:13.310Z,7.80
2019-03-11T03:50:13.303Z,7.00
2019-03-11T03:51:13.308Z,6.90
2019-03-11T03:52:13.287Z,7.00
2019-03-11T03:53:13.262Z,7.20
2019-03-11T03:54:13.263Z,7.50
2019-03-11T03:55:13.243Z,7.60
2019-03-11T03:56:13.232Z,7.70
2019-03-11T03:57:13.239Z,7.90
2019-03-11T03:58:13.214Z,7.30
2019-03-11T03:59:13.216Z,6.30
2019-03-11T04:00:13.190Z,7.30
2019-03-11T04:01:13.177Z,6.90
2019-03-11T04:02:13.181Z,8.40
2019-03-11T04:03:13.153Z,6.90
2019-03-11T04:04:13.151Z,7.00
2019-03-11T04:05:13.138Z,7.70
2019-03-11T04:06:13.114Z,7.50
2019-03-11T04:07:13.147Z,8.20
2019-03-11T04:08:13.087Z,7.60
2019-03-11T04:09:13.091Z,8.00
2019-03-11T04:10:13.069Z,7.70
2019-03-11T04:11:13.058Z,7.90
2019-03-11T04:12:13.052Z,8.80
2019-03-11T04:13:13.078Z,7.60
2019-03-11T04:14:13.027Z,7.80
2019-03-11T04:15:13.015Z,8.40
2019-03-11T04:16:13.003Z,8.40
2019-03-11T04:17:12.994Z,8.60
2019-03-11T04:18:13.003Z,8.20
2019-03-11T04:19:12.987Z,7.80
2019-03-11T04:20:12.964Z,8.30
2019-03-11T04:21:12.961Z,8.10
2019-03-11T04:22:12.938Z,8.10
2019-03-11T04:23:12.947Z,9.80
2019-03-11T04:24:12.926Z,9.60
2019-03-11T04:25:12.907Z,10.30
2019-03-11T04:26:12.895Z,9.00
2019-03-11T04:27:12.950Z,8.80
2019-03-11T04:28:12.911Z,11.50
2019-03-11T04:29:12.865Z,9.30
2019-03-11T04:30:12.863Z,10.80
2019-03-11T04:31:12.837Z,11.20
2019-03-11T04:32:12.831Z,11.00
2019-03-11T04:33:12.830Z,10.40
2019-03-11T04:34:12.803Z,11.70
2019-03-11T04:35:12.801Z,12.10
2019-03-11T04:36:12.799Z,9.80
2019-03-11T04:37:12.764Z,10.80
2019-03-11T04:38:12.772Z,11.30
2019-03-11T04:39:12.759Z,13.00
2019-03-11T04:40:12.747Z,11.90
2019-03-11T04:41:12.733Z,11.00
2019-03-11T04:42:12.720Z,10.80
2019-03-11T04:43:12.743Z,11.20
2019-03-11T04:44:12.690Z,10.90
2019-03-11T04:45:12.682Z,12.90
2019-03-11T04:46:12.673Z,10.70
2019-03-11T04:47:12.683Z,12.10
2019-03-11T04:48:12.650Z,13.30
2019-03-11T04:49:12.650Z,13.00
2019-03-11T04:50:12.633Z,15.20
2019-03-11T04:51:12.614Z,12.50
2019-03-11T04:52:12.607Z,13.80
2019-03-11T04:53:12.601Z,12.20
2019-03-11T04:54:12.617Z,13.80
2019-03-11T04:55:12.586Z,10.60
2019-03-11T04:56:12.558Z,12.90
2019-03-11T04:57:12.550Z,11.50
2019-03-11T04:58:12.556Z,12.20
2019-03-11T04:59:12.556Z,12.30
2019-03-11T05:00:12.516Z,10.60
2019-03-11T05:01:12.514Z,10.40
2019-03-11T05:02:12.488Z,11.40
2019-03-11T05:03:12.485Z,12.00
2019-03-11T05:04:12.499Z,13.10
2019-03-11T05:05:12.455Z,13.50
2019-03-11T05:06:12.449Z,13.70
2019-03-11T05:07:12.438Z,12.60
2019-03-11T05:08:12.426Z,12.80
2019-03-11T05:09:12.455Z,11.70
2019-03-11T05:10:12.417Z,10.90
2019-03-11T05:11:12.394Z,13.70
2019-03-11T05:12:12.384Z,13.90
2019-03-11T05:13:12.369Z,10.20
2019-03-11T05:14:12.377Z,11.90
2019-03-11T05:15:12.342Z,10.80
2019-03-11T05:16:12.341Z,10.20
2019-03-11T05:17:12.327Z,14.70
2019-03-11T05:18:12.322Z,15.20
2019-03-11T05:19:12.318Z,11.10
2019-03-11T05:20:12.293Z,9.80
2019-03-11T05:21:12.289Z,12.40
2019-03-11T05:22:12.269Z,11.20
2019-03-11T05:23:12.261Z,10.60
2019-03-11T05:24:12.275Z,11.10
2019-03-11T05:25:12.237Z,11.70
2019-03-11T05:26:12.226Z,13.20
2019-03-11T05:27:12.221Z,15.80
2019-03-11T05:28:12.195Z,16.30
2019-03-11T05:29:12.243Z,14.00
2019-03-11T05:30:12.182Z,12.50
2019-03-11T05:31:12.182Z,10.70
2019-03-11T05:32:12.163Z,16.10
2019-03-11T05:33:12.152Z,13.90
2019-03-11T05:34:12.137Z,16.30
2019-03-11T05:35:12.149Z,13.20
2019-03-11T05:36:12.120Z,10.90
2019-03-11T05:37:12.101Z,12.40
2019-03-11T05:38:12.091Z,10.70
2019-03-11T05:39:12.075Z,15.30
2019-03-11T05:40:12.082Z,12.60
2019-03-11T05:41:12.055Z,13.80
2019-03-11T05:42:12.048Z,10.10
2019-03-11T05:43:12.033Z,14.70
2019-03-11T05:44:12.025Z,16.60
2019-03-11T05:45:12.069Z,15.00
2019-03-11T05:46:12.117Z,14.90
2019-03-11T05:47:11.994Z,17.40
2019-03-11T05:48:11.980Z,10.80
2019-03-11T05:49:11.961Z,14.20
2019-03-11T05:50:11.982Z,13.80
2019-03-11T05:51:11.947Z,11.50
2019-03-11T05:52:11.943Z,14.10
2019-03-11T05:53:11.929Z,11.60
2019-03-11T05:54:11.926Z,15.60
2019-03-11T05:55:11.898Z,14.80
2019-03-11T05:56:11.905Z,13.20
2019-03-11T05:57:11.885Z,11.60
2019-03-11T05:58:11.864Z,12.20
2019-03-11T05:59:11.855Z,11.80
2019-03-11T06:00:11.848Z,12.00
2019-03-11T06:01:11.863Z,14.10
2019-03-11T06:02:11.825Z,10.80
2019-03-11T06:03:11.816Z,10.90
2019-03-11T06:04:11.799Z,12.20
2019-03-11T06:05:11.789Z,11.90
2019-03-11T06:06:11.799Z,8.90
2019-03-11T06:07:11.792Z,13.90
2019-03-11T06:08:11.757Z,16.00
2019-03-11T06:09:11.747Z,13.60
2019-03-11T06:10:11.736Z,15.80
2019-03-11T06:11:11.740Z,10.60
2019-03-11T06:12:11.725Z,15.20
2019-03-11T06:13:11.715Z,12.80
2019-03-11T06:14:11.695Z,13.10
2019-03-11T06:15:11.693Z,13.40
2019-03-11T06:16:11.749Z,13.00
2019-03-11T06:17:11.660Z,14.20
2019-03-11T06:18:11.656Z,12.20
2019-03-11T06:19:11.643Z,16.80
2019-03-11T06:20:11.628Z,15.10
2019-03-11T06:21:11.611Z,13.70
2019-03-11T06:22:11.624Z,13.10
2019-03-11T06:23:11.591Z,15.30
2019-03-11T06:24:11.588Z,18.00
2019-03-11T06:25:11.571Z,13.70
2019-03-11T06:26:11.563Z,13.20
2019-03-11T06:27:11.674Z,11.70
2019-03-11T06:28:11.533Z,15.10
2019-03-11T06:29:11.529Z,14.30
2019-03-11T06:30:11.527Z,14.00
2019-03-11T06:31:11.503Z,13.90
2019-03-11T06:32:11.508Z,13.10
2019-03-11T06:33:11.477Z,18.30
2019-03-11T06:34:11.465Z,14.20
2019-03-11T06:35:11.454Z,14.60
2019-03-11T06:36:11.453Z,13.20
2019-03-11T06:37:11.462Z,16.20
2019-03-11T06:38:11.456Z,11.30
2019-03-11T06:39:11.421Z,14.90
2019-03-11T06:40:11.399Z,14.20
2019-03-11T06:41:11.393Z,17.10
2019-03-11T06:42:11.402Z,13.50
2019-03-11T06:43:11.372Z,12.40
2019-03-11T06:44:11.359Z,16.00
2019-03-11T06:45:11.353Z,15.20
2019-03-11T06:46:11.339Z,10.70
2019-03-11T06:47:11.349Z,12.50
2019-03-11T06:48:11.312Z,10.70
2019-03-11T06:49:11.305Z,11.80
2019-03-11T06:50:11.291Z,13.70
2019-03-11T06:51:11.283Z,11.20
2019-03-11T06:52:11.285Z,14.00
2019-03-11T06:53:11.256Z,14.00
2019-03-11T06:54:11.245Z,11.10
2019-03-11T06:55:11.235Z,14.20
2019-03-11T06:56:11.231Z,17.80
2019-03-11T06:57:12.742Z,12.10
2019-03-11T06:58:11.208Z,15.30
2019-03-11T06:59:11.187Z,13.50
2019-03-11T07:00:11.185Z,13.50
2019-03-11T07:01:11.162Z,12.70
2019-03-11T07:02:11.154Z,12.20
2019-03-11T07:03:11.179Z,17.30
2019-03-11T07:04:11.143Z,14.30
2019-03-11T07:05:19.124Z,11.10
2019-03-11T07:06:12.114Z,12.90
2019-03-11T07:07:11.100Z,10.70
2019-03-11T07:08:11.103Z,13.90
2019-03-11T07:09:11.104Z,12.40
2019-03-11T07:10:11.072Z,9.80
2019-03-11T07:11:11.069Z,12.60
2019-03-11T07:12:11.041Z,15.50
2019-03-11T07:13:11.079Z,12.30
2019-03-11T07:14:11.021Z,12.00
2019-03-11T07:15:11.020Z,14.60
2019-03-11T07:16:11.005Z,9.40
2019-03-11T07:17:10.995Z,11.40
2019-03-11T07:18:11.000Z,14.40
2019-03-11T07:19:10.962Z,11.40
2019-03-11T07:20:10.963Z,12.00
2019-03-11T07:21:10.957Z,11.30
2019-03-11T07:22:10.935Z,13.80
2019-03-11T07:23:10.956Z,7.50
2019-03-11T07:24:10.912Z,11.10
2019-03-11T07:25:10.899Z,9.60
2019-03-11T07:26:10.900Z,14.00
2019-03-11T07:27:10.882Z,13.30
2019-03-11T07:28:10.886Z,11.80
2019-03-11T07:29:10.862Z,10.40
2019-03-11T07:30:10.838Z,13.20
2019-03-11T07:31:10.831Z,9.80
2019-03-11T07:32:10.826Z,10.40
2019-03-11T07:33:10.844Z,14.30
2019-03-11T07:34:10.813Z,11.60
2019-03-11T07:35:10.789Z,11.70
2019-03-11T07:36:10.780Z,13.00
2019-03-11T07:37:10.797Z,9.20
2019-03-11T07:38:10.776Z,11.20
2019-03-11T07:39:10.741Z,14.70
2019-03-11T07:40:10.746Z,11.90
2019-03-11T07:41:10.726Z,8.70
2019-03-11T07:42:10.706Z,11.40
2019-03-11T07:43:10.734Z,11.90
2019-03-11T07:44:10.701Z,10.40
2019-03-11T07:45:10.675Z,10.20
2019-03-11T07:46:10.669Z,11.30
2019-03-11T07:47:10.669Z,9.70
2019-03-11T07:48:10.649Z,10.00
2019-03-11T07:49:10.651Z,14.40
2019-03-11T07:50:10.630Z,7.10
2019-03-11T07:51:10.616Z,10.40
2019-03-11T07:52:10.599Z,11.70
2019-03-11T07:53:10.586Z,12.60
2019-03-11T07:54:10.598Z,13.20
2019-03-11T07:55:10.585Z,9.20
2019-03-11T07:56:10.555Z,10.40
2019-03-11T07:57:11.209Z,11.80
2019-03-11T07:58:10.533Z,9.90
2019-03-11T07:59:10.538Z,9.40
2019-03-11T08:00:10.513Z,11.10
2019-03-11T08:01:10.516Z,11.20
2019-03-11T08:02:10.495Z,9.50
2019-03-11T08:03:10.468Z,10.50
2019-03-11T08:04:10.478Z,10.00
2019-03-11T08:05:10.447Z,9.30
2019-03-11T08:06:18.189Z,11.70
2019-03-11T08:07:11.435Z,8.90
2019-03-11T08:08:10.510Z,10.20
2019-03-11T08:09:10.423Z,9.50
2019-03-11T08:10:10.417Z,10.60
2019-03-11T08:11:10.387Z,9.80
2019-03-11T08:12:10.385Z,12.20
2019-03-11T08:13:10.361Z,9.70
2019-03-11T08:14:10.383Z,8.70
2019-03-11T08:15:10.338Z,14.30
2019-03-11T08:16:10.329Z,10.80
2019-03-11T08:17:10.323Z,10.20
2019-03-11T08:18:10.957Z,10.60
2019-03-11T08:19:10.331Z,9.70
2019-03-11T08:20:10.276Z,9.90
2019-03-11T08:21:10.277Z,10.40
2019-03-11T08:22:10.257Z,14.00
2019-03-11T08:23:10.265Z,9.50
2019-03-11T08:24:10.269Z,11.20
2019-03-11T08:25:10.233Z,11.20
2019-03-11T08:26:10.216Z,14.50
2019-03-11T08:27:10.218Z,9.40
2019-03-11T08:28:10.199Z,9.90
2019-03-11T08:29:10.217Z,8.30
2019-03-11T08:30:10.205Z,10.70
2019-03-11T08:31:10.166Z,10.80
2019-03-11T08:32:10.164Z,10.60
2019-03-11T08:33:10.141Z,10.00
2019-03-11T08:34:10.128Z,15.50
2019-03-11T08:35:10.139Z,8.70
2019-03-11T08:36:10.109Z,12.60
2019-03-11T08:37:10.109Z,10.90
2019-03-11T08:38:10.090Z,10.00
2019-03-11T08:39:10.074Z,16.20
2019-03-11T08:40:10.087Z,10.10
2019-03-11T08:41:10.068Z,14.40
2019-03-11T08:42:10.048Z,9.40
2019-03-11T08:43:10.029Z,11.00
2019-03-11T08:44:10.015Z,12.40
2019-03-11T08:45:10.031Z,8.90
2019-03-11T08:46:10.010Z,9.30
2019-03-11T08:47:09.987Z,8.40
2019-03-11T08:48:09.975Z,9.70
2019-03-11T08:49:09.961Z,11.10
2019-03-11T08:50:09.966Z,11.00
2019-03-11T08:51:09.939Z,12.10
2019-03-11T08:52:09.937Z,9.80
2019-03-11T08:53:09.920Z,9.50
2019-03-11T08:54:09.911Z,9.40
2019-03-11T08:55:09.925Z,14.20
2019-03-11T08:56:09.902Z,8.50
2019-03-11T08:57:09.890Z,9.70
2019-03-11T08:58:09.871Z,10.50
2019-03-11T08:59:09.848Z,8.50
2019-03-11T09:00:09.868Z,8.50
2019-03-11T09:01:09.833Z,12.90
2019-03-11T09:02:09.817Z,10.30
2019-03-11T09:03:09.822Z,11.60
2019-03-11T09:04:09.787Z,9.90
2019-03-11T09:05:09.793Z,11.10
2019-03-11T09:06:09.767Z,11.30
2019-03-11T09:07:09.755Z,9.50
2019-03-11T09:08:09.750Z,10.10
2019-03-11T09:09:09.745Z,10.50
2019-03-11T09:10:09.757Z,11.20
2019-03-11T09:11:09.729Z,8.60
2019-03-11T09:12:09.703Z,11.40
2019-03-11T09:13:09.701Z,11.00
2019-03-11T09:14:09.688Z,11.70
2019-03-11T09:15:09.674Z,12.50
2019-03-11T09:16:09.691Z,10.10
2019-03-11T09:17:09.643Z,8.10
2019-03-11T09:18:09.637Z,10.90
2019-03-11T09:19:09.620Z,9.80
2019-03-11T09:20:09.622Z,10.60
2019-03-11T09:21:09.635Z,13.90
2019-03-11T09:22:09.597Z,9.50
2019-03-11T09:23:09.591Z,9.90
2019-03-11T09:24:18.664Z,12.50
2019-03-11T09:25:10.561Z,11.70
2019-03-11T09:26:09.575Z,9.70
2019-03-11T09:27:09.536Z,12.70
2019-03-11T09:28:09.544Z,13.20
2019-03-11T09:29:09.514Z,8.70
2019-03-11T09:30:09.502Z,9.60
2019-03-11T09:31:09.526Z,10.80
2019-03-11T09:32:09.492Z,9.80
2019-03-11T09:33:09.508Z,11.10
2019-03-11T09:34:09.454Z,10.60
2019-03-11T09:35:09.445Z,10.00
2019-03-11T09:36:09.459Z,9.20
2019-03-11T09:37:09.437Z,8.70
2019-03-11T09:38:09.434Z,12.40
2019-03-11T09:39:09.403Z,12.00
2019-03-11T09:40:09.388Z,12.20
2019-03-11T09:41:09.414Z,12.90
2019-03-11T09:42:09.369Z,12.00
2019-03-11T09:43:09.362Z,10.60
2019-03-11T09:44:09.342Z,14.80
2019-03-11T09:45:09.340Z,10.30
2019-03-11T09:46:09.353Z,10.20
2019-03-11T09:47:09.329Z,9.10
2019-03-11T09:48:09.305Z,8.30
2019-03-11T09:49:09.300Z,12.00
2019-03-11T09:50:09.279Z,10.30
2019-03-11T09:51:09.290Z,12.60
2019-03-11T09:52:09.261Z,12.10
2019-03-11T09:53:09.241Z,12.60
2019-03-11T09:54:09.246Z,12.80
2019-03-11T09:55:09.233Z,10.70
2019-03-11T09:56:09.787Z,11.70
2019-03-11T09:57:09.201Z,11.90
2019-03-11T09:58:09.199Z,9.20
2019-03-11T09:59:09.182Z,9.80
2019-03-11T10:00:09.180Z,11.50
2019-03-11T10:01:09.153Z,12.10
2019-03-11T10:02:09.157Z,9.00
2019-03-11T10:03:09.134Z,9.80
2019-03-11T10:04:09.132Z,8.70
2019-03-11T10:05:09.113Z,12.80
2019-03-11T10:06:09.106Z,10.50
2019-03-11T10:07:09.115Z,7.90
2019-03-11T10:08:10.871Z,11.80
2019-03-11T10:09:09.057Z,9.00
2019-03-11T10:10:09.050Z,7.40
2019-03-11T10:11:09.050Z,8.40
2019-03-11T10:12:09.121Z,9.20
2019-03-11T10:13:09.030Z,11.60
2019-03-11T10:14:09.009Z,7.40
2019-03-11T10:15:08.996Z,14.20
2019-03-11T10:16:08.991Z,7.90
2019-03-11T10:17:08.994Z,7.20
2019-03-11T10:18:08.965Z,6.40
2019-03-11T10:19:08.957Z,11.40
2019-03-11T10:20:08.944Z,7.30
2019-03-11T10:21:08.947Z,9.90
2019-03-11T10:22:08.953Z,9.80
2019-03-11T10:23:08.913Z,8.70
2019-03-11T10:24:08.962Z,12.80
2019-03-11T10:25:08.881Z,8.30
2019-03-11T10:26:08.873Z,9.10
2019-03-11T10:27:08.892Z,9.20
2019-03-11T10:28:08.858Z,7.00
2019-03-11T10:29:08.839Z,9.40
2019-03-11T10:30:08.835Z,9.10
2019-03-11T10:31:08.819Z,9.80
2019-03-11T10:32:08.845Z,9.30
2019-03-11T10:33:08.794Z,9.20
2019-03-11T10:34:08.793Z,8.90
2019-03-11T10:35:30.143Z,11.00
2019-03-11T10:36:09.755Z,9.10
2019-03-11T10:37:08.809Z,10.40
2019-03-11T10:38:08.743Z,8.40
2019-03-11T10:39:08.722Z,10.50
2019-03-11T10:40:08.722Z,10.20
2019-03-11T10:41:08.702Z,8.90
2019-03-11T10:42:08.726Z,7.60
2019-03-11T10:43:08.685Z,8.10
2019-03-11T10:44:08.677Z,9.90
2019-03-11T10:45:08.667Z,11.40
2019-03-11T10:46:08.658Z,7.60
2019-03-11T10:47:08.665Z,7.70
2019-03-11T10:48:08.627Z,7.40
2019-03-11T10:49:08.610Z,8.50
2019-03-11T10:50:08.608Z,7.00
2019-03-11T10:51:08.593Z,8.90
2019-03-11T10:52:08.608Z,7.00
2019-03-11T10:53:08.583Z,9.90
2019-03-11T10:54:08.554Z,7.40
2019-03-11T10:55:08.557Z,10.60
2019-03-11T10:56:08.536Z,11.60
2019-03-11T10:57:08.548Z,7.80
2019-03-11T10:58:08.527Z,10.60
2019-03-11T10:59:08.505Z,7.00
2019-03-11T11:00:08.498Z,8.30
2019-03-11T11:01:09.778Z,10.10
2019-03-11T11:02:08.509Z,7.30
2019-03-11T11:03:08.471Z,6.60
2019-03-11T11:04:08.463Z,8.80
2019-03-11T11:05:08.443Z,7.20
2019-03-11T11:06:08.421Z,8.60
2019-03-11T11:07:08.416Z,9.60
2019-03-11T11:08:08.423Z,6.10
2019-03-11T11:09:08.397Z,6.90
2019-03-11T11:10:08.384Z,7.10
2019-03-11T11:11:08.370Z,6.60
2019-03-11T11:12:08.363Z,9.10
2019-03-11T11:13:08.379Z,10.60
2019-03-11T11:14:08.337Z,8.90
2019-03-11T11:15:08.319Z,8.00
2019-03-11T11:16:08.309Z,7.00
2019-03-11T11:17:08.303Z,8.20
2019-03-11T11:18:08.318Z,7.80
2019-03-11T11:19:08.284Z,9.80
2019-03-11T11:20:08.276Z,12.40
2019-03-11T11:21:08.264Z,7.20
2019-03-11T11:22:08.249Z,7.00
2019-03-11T11:23:08.360Z,6.80
2019-03-11T11:24:08.226Z,7.60
2019-03-11T11:25:08.211Z,8.20
2019-03-11T11:26:08.212Z,8.10
2019-03-11T11:27:08.200Z,10.50
2019-03-11T11:28:08.203Z,8.50
2019-03-11T11:29:08.163Z,10.40
2019-03-11T11:30:08.163Z,8.50
2019-03-11T11:31:08.135Z,6.20
2019-03-11T11:32:08.145Z,6.80
2019-03-11T11:33:08.217Z,11.50
2019-03-11T11:34:08.108Z,8.10
2019-03-11T11:35:08.103Z,8.30
2019-03-11T11:36:08.113Z,9.70
2019-03-11T11:37:08.072Z,10.90
2019-03-11T11:38:08.079Z,9.20
2019-03-11T11:39:08.050Z,11.30
2019-03-11T11:40:08.058Z,11.40
2019-03-11T11:41:08.034Z,15.90
2019-03-11T11:42:08.023Z,11.60
2019-03-11T11:43:08.034Z,8.60
2019-03-11T11:44:08.054Z,12.10
2019-03-11T11:45:07.985Z,12.30
2019-03-11T11:46:07.977Z,11.30
2019-03-11T11:47:07.970Z,11.20
2019-03-11T11:48:08.466Z,10.00
2019-03-11T11:49:08.012Z,12.10
2019-03-11T11:50:07.930Z,8.70
2019-03-11T11:51:07.912Z,11.40
2019-03-11T11:52:07.928Z,12.40
2019-03-11T11:53:07.931Z,10.30
2019-03-11T11:54:07.878Z,12.10
2019-03-11T11:55:07.876Z,11.60
2019-03-11T11:56:07.858Z,13.70
2019-03-11T11:57:07.857Z,13.40
2019-03-11T11:58:07.858Z,11.80
2019-03-11T11:59:07.827Z,9.80
2019-03-11T12:00:07.816Z,9.90
2019-03-11T12:01:07.810Z,12.70
2019-03-11T12:02:07.810Z,13.30
2019-03-11T12:03:07.804Z,10.60
2019-03-11T12:04:07.776Z,10.20
2019-03-11T12:05:07.764Z,11.00
2019-03-11T12:06:07.751Z,8.60
2019-03-11T12:07:07.735Z,10.00
2019-03-11T12:08:07.751Z,10.10
2019-03-11T12:09:07.717Z,9.40
2019-03-11T12:10:07.716Z,8.30
2019-03-11T12:11:07.707Z,9.30
2019-03-11T12:12:07.686Z,10.20
2019-03-11T12:13:07.703Z,10.40
2019-03-11T12:14:07.659Z,10.80
2019-03-11T12:15:07.650Z,8.80
2019-03-11T12:16:07.634Z,10.30
2019-03-11T12:17:07.632Z,9.70
2019-03-11T12:18:07.625Z,12.30
2019-03-11T12:19:07.597Z,8.50
2019-03-11T12:20:07.607Z,12.50
2019-03-11T12:21:07.587Z,8.20
2019-03-11T12:22:07.567Z,9.30
2019-03-11T12:23:07.589Z,12.80
2019-03-11T12:24:07.548Z,12.00
2019-03-11T12:25:07.541Z,10.00
2019-03-11T12:26:07.529Z,9.50
2019-03-11T12:27:07.527Z,9.00
2019-03-11T12:28:07.531Z,12.60
2019-03-11T12:29:07.494Z,9.20
2019-03-11T12:30:07.478Z,8.70
2019-03-11T12:31:07.467Z,9.90
2019-03-11T12:32:07.464Z,10.10
2019-03-11T12:33:07.467Z,8.50
2019-03-11T12:34:07.441Z,9.10
2019-03-11T12:35:07.431Z,9.10
2019-03-11T12:36:07.413Z,10.00
2019-03-11T12:37:07.413Z,10.50
2019-03-11T12:38:07.454Z,10.70
2019-03-11T12:39:07.391Z,10.40
2019-03-11T12:40:07.369Z,11.00
2019-03-11T12:41:07.353Z,14.00
2019-03-11T12:42:07.347Z,12.00
2019-03-11T12:43:07.359Z,9.80
2019-03-11T12:44:07.324Z,8.10
2019-03-11T12:45:07.347Z,11.50
2019-03-11T12:46:07.304Z,10.10
2019-03-11T12:47:07.294Z,9.50
2019-03-11T12:48:07.293Z,7.50
2019-03-11T12:49:07.270Z,9.20
2019-03-11T12:50:07.285Z,13.40
2019-03-11T12:51:07.247Z,9.80
2019-03-11T12:52:07.237Z,8.50
2019-03-11T12:53:07.225Z,9.80
2019-03-11T12:54:07.246Z,11.10
2019-03-11T12:55:07.209Z,7.40
2019-03-11T12:56:07.196Z,11.90
2019-03-11T12:57:07.187Z,12.70
2019-03-11T12:58:07.166Z,12.90
2019-03-11T12:59:07.191Z,8.70
2019-03-11T13:00:07.145Z,8.20
2019-03-11T13:01:07.143Z,8.90
2019-03-11T13:02:07.131Z,9.40
2019-03-11T13:03:07.117Z,9.40